Inverness, CA (94937)

5:20 AM PDT on September 01, 2014 (GMT -0700)
Marin County DPW Corporation Yard | Change Station
CLOSE
Current Station
Personal Weather Station
Location: Nicasio, CA
Elevation: 443 ft
Nearby Weather Stations

Elev 443 ft 38.07 °N, 122.70 °W | Updated 9 minutes ago

Clear
Clear
49.4 °F
Feels Like 49 °F
N
0.0
Wind Variable Wind from SW
Gusts 3.0 mph

Today
High -- | Low -- °F
--% Chance of Precip.
Yesterday
High -- | Low -- °F
Precip. -- in
6:41 AM 7:40 PM
Waxing Crescent, 40% visible
Pressure 29.79 in
Visibility 10.0 miles
Clouds Clear
Windchill 49 °F
Dew Point 49 °F
Humidity 100%
Rainfall 0.00 in
Snow Depth Not available.
UV 0 out of 12
Pollen 8.40 out of 12
Air Quality Not available.
Flu Activity Not available.
METAR KSTS 011153Z AUTO 00000KT 10SM CLR 12/09 A2981 RMK AO2 SLP088 T01220094 10172 20122 55001

More Conditions Fewer Conditions

Pressure 29.79 in
Visibility 10.0 miles
Clouds Clear
Windchill 49 °F
Dew Point 49 °F
Humidity 100%
Rainfall 0.00 in
Snow Depth Not available.
UV 0 out of 12
Pollen 8.40 out of 12
Air Quality Not available.
Flu Activity Not available.
METAR KSTS 011153Z AUTO 00000KT 10SM CLR 12/09 A2981 RMK AO2 SLP088 T01220094 10172 20122 55001

More Conditions Fewer Conditions

10-Day Weather Forecast

Almanac

Astronomy

Sep. 01, 2014 Rise Set
Actual Time 6:41 AM PDT 7:40 PM PDT
Civil Twilight 6:14 AM PDT 8:07 PM PDT
Nautical Twilight 5:42 AM PDT 8:39 PM PDT
Astronomical Twilight 5:08 AM PDT 9:12 PM PDT
Moon 1:26 PM PDT 11:53 PM PDT
Length of Visible Light 13h 53m
Length of Day
12h 59m
Tomorrow will be 2m 22s shorter.
Waxing Crescent, 40% of the Moon is Illuminated
Today
Waxing Crescent
Sep 2
First Quarter
Sep 8
Full
Sep 15
Last Quarter
Sep 24
New

Today's Extremes

State Highs State Lows

Community

WunderPhotos

Upload Photos

1,749,195 photos uploaded!

Nearby

Snow Depth

Station Depth Elevation
CSS Lab 4 in 6900 ft
Squaw Valley 0 in 8200 ft
Echo Peak 0 in 7800 ft
Rubicon #2 0 in 7500 ft
Forestdale Creek 0 in 8029 ft

Earthquake Activity

City Distance Mag. Time & Date
Green Valley, California 39 miles 2.5 6:37 AM PDT
2014-08-31
Napa, California 29 miles 3.2 1:56 AM PDT
2014-08-31
Gonzales, California 134 miles 2.7 9:48 PM PDT
2014-08-30
Ridgemark, California 128 miles 3.4 4:32 PM PDT
2014-08-29
Minimum magnitude displayed is 2.5.

Coastal Water Temperatures

Place Temperature
Point Reyes, CA 57.9 °F
Arena Cove, CA 54.0 °F
San Francisco, CA 66.0 °F
Richmond, CA 68.0 °F

Nearby Weather Stations